createdAt,value
2022-10-17T00:01:34.775Z,10.42
2022-10-17T00:06:37.266Z,10.37
2022-10-17T00:11:39.530Z,10.31
2022-10-17T00:16:41.116Z,10.24
2022-10-17T00:21:42.670Z,10.15
2022-10-17T00:26:44.240Z,10.10
2022-10-17T00:31:45.832Z,10.04
2022-10-17T00:36:47.565Z,10.00
2022-10-17T00:41:49.264Z,9.95
2022-10-17T00:46:50.817Z,9.89
2022-10-17T00:51:57.447Z,9.82
2022-10-17T00:56:59.580Z,9.78
2022-10-17T01:02:11.645Z,9.76
2022-10-17T01:07:13.311Z,9.69
2022-10-17T01:12:18.869Z,9.69
2022-10-17T01:17:50.760Z,9.61
2022-10-17T01:23:07.440Z,9.56
2022-10-17T01:28:30.296Z,9.55
2022-10-17T01:33:53.261Z,9.49
2022-10-17T01:39:02.511Z,9.46
2022-10-17T01:44:10.441Z,9.42
2022-10-17T01:49:17.366Z,9.38
2022-10-17T01:54:25.748Z,9.33
2022-10-17T01:59:37.278Z,9.30
2022-10-17T02:04:41.295Z,9.23
2022-10-17T02:09:43.047Z,9.22
2022-10-17T02:15:02.875Z,9.13
2022-10-17T02:20:26.776Z,9.16
2022-10-17T02:25:45.492Z,9.22
2022-10-17T02:31:02.096Z,9.32
2022-10-17T02:36:08.950Z,9.27
2022-10-17T02:41:15.620Z,9.20
2022-10-17T02:46:23.172Z,9.09
2022-10-17T02:51:42.297Z,9.09
2022-10-17T02:56:52.907Z,9.20
2022-10-17T03:01:54.755Z,9.09
2022-10-17T03:06:56.441Z,9.04
2022-10-17T03:11:58.227Z,8.98
2022-10-17T03:17:00.460Z,8.92
2022-10-17T03:22:02.322Z,8.89
2022-10-17T03:27:05.511Z,8.85
2022-10-17T03:32:07.163Z,8.85
2022-10-17T03:37:09.513Z,8.81
2022-10-17T03:42:13.544Z,8.80
2022-10-17T03:47:15.251Z,8.78
2022-10-17T03:52:16.943Z,8.74
2022-10-17T03:57:19.649Z,8.70
2022-10-17T04:02:21.830Z,8.70
2022-10-17T04:07:24.575Z,8.69
2022-10-17T04:12:26.424Z,8.66
2022-10-17T04:17:35.754Z,8.64
2022-10-17T04:22:40.115Z,8.61
2022-10-17T04:27:41.897Z,8.70
2022-10-17T04:32:43.662Z,8.69
2022-10-17T04:37:55.431Z,8.69
2022-10-17T04:42:57.228Z,8.89
2022-10-17T04:48:06.859Z,8.82
2022-10-17T04:53:09.044Z,8.78
2022-10-17T04:58:10.873Z,8.83
2022-10-17T05:03:13.156Z,8.85
2022-10-17T05:08:15.168Z,8.85
2022-10-17T05:13:16.804Z,8.74
2022-10-17T05:18:18.671Z,8.69
2022-10-17T05:23:20.470Z,8.68
2022-10-17T05:28:22.784Z,8.68
2022-10-17T05:33:26.388Z,8.62
2022-10-17T05:38:28.639Z,8.52
2022-10-17T05:43:31.881Z,8.69
2022-10-17T05:48:34.370Z,8.72
2022-10-17T05:53:38.993Z,8.82
2022-10-17T05:58:50.257Z,9.01
2022-10-17T06:04:07.839Z,9.07
2022-10-17T06:09:10.020Z,9.06
2022-10-17T06:14:14.636Z,9.04
2022-10-17T06:19:17.402Z,9.08
2022-10-17T06:24:20.871Z,9.12
2022-10-17T06:29:22.835Z,9.16
2022-10-17T06:34:27.323Z,9.24
2022-10-17T06:39:33.854Z,9.37
2022-10-17T06:44:42.792Z,9.62
2022-10-17T06:50:07.221Z,10.00
2022-10-17T06:55:21.467Z,10.30
2022-10-17T07:00:42.801Z,10.62
2022-10-17T07:05:52.192Z,10.95
2022-10-17T07:10:56.690Z,11.16
2022-10-17T07:16:01.711Z,11.42
2022-10-17T07:21:06.126Z,11.60
2022-10-17T07:26:11.469Z,11.72
2022-10-17T07:31:17.703Z,11.92
2022-10-17T07:36:20.381Z,12.15
2022-10-17T07:41:26.015Z,12.34
2022-10-17T07:46:28.242Z,12.48
2022-10-17T07:51:30.374Z,12.65
2022-10-17T07:56:33.478Z,12.83
2022-10-17T08:01:35.108Z,13.02
2022-10-17T08:06:36.967Z,13.20
2022-10-17T08:11:38.916Z,13.54
2022-10-17T08:16:41.128Z,13.82
2022-10-17T08:21:44.919Z,14.15
2022-10-17T08:26:49.597Z,14.45
2022-10-17T08:32:00.863Z,14.66
2022-10-17T08:37:03.836Z,14.92
2022-10-17T08:42:05.422Z,15.32
2022-10-17T08:47:14.777Z,15.73
2022-10-17T08:52:29.855Z,16.13
2022-10-17T08:57:31.820Z,16.32
2022-10-17T09:03:11.903Z,16.72
2022-10-17T09:08:20.459Z,17.05
2022-10-17T09:13:57.287Z,17.23
2022-10-17T09:19:21.494Z,17.55
2022-10-17T09:24:39.127Z,17.78
2022-10-17T09:29:43.842Z,18.02
2022-10-17T09:34:45.661Z,18.23
2022-10-17T09:39:47.943Z,18.39
2022-10-17T09:44:56.876Z,18.45
2022-10-17T09:49:58.496Z,18.56
2022-10-17T09:55:02.676Z,18.60
2022-10-17T10:00:06.474Z,18.62
2022-10-17T10:05:19.015Z,18.74
2022-10-17T10:10:27.918Z,18.89
2022-10-17T10:15:37.034Z,19.06
2022-10-17T10:20:38.713Z,19.21
2022-10-17T10:26:02.796Z,19.40
2022-10-17T10:31:07.672Z,19.58
2022-10-17T10:36:09.907Z,19.70
2022-10-17T10:41:11.856Z,19.84
2022-10-17T10:46:23.606Z,19.97
2022-10-17T10:51:47.939Z,20.11
2022-10-17T10:56:53.622Z,20.24
2022-10-17T11:02:10.732Z,20.38
2022-10-17T11:07:24.659Z,20.53
2022-10-17T11:12:39.210Z,20.60
2022-10-17T11:17:52.764Z,20.67
2022-10-17T11:23:01.600Z,20.81
2022-10-17T11:28:10.264Z,20.88
2022-10-17T11:33:20.383Z,20.99
2022-10-17T11:38:24.972Z,21.08
2022-10-17T11:43:35.272Z,21.19
2022-10-17T11:48:46.029Z,21.36
2022-10-17T11:53:47.575Z,21.48
2022-10-17T11:59:24.428Z,21.66
2022-10-17T12:04:56.235Z,21.84
2022-10-17T12:10:39.192Z,22.03
2022-10-17T12:15:44.677Z,22.09
2022-10-17T12:20:58.684Z,22.15
2022-10-17T12:26:04.675Z,22.15
2022-10-17T12:31:23.023Z,22.15
2022-10-17T12:36:27.268Z,22.23
2022-10-17T12:41:37.961Z,22.31
2022-10-17T12:46:44.360Z,22.37
2022-10-17T12:52:22.367Z,22.45
2022-10-17T12:57:47.327Z,22.47
2022-10-17T13:02:52.011Z,22.46
2022-10-17T13:07:55.242Z,22.48
2022-10-17T13:13:08.570Z,22.52
2022-10-17T13:18:18.543Z,22.55
2022-10-17T13:23:31.564Z,22.56
2022-10-17T13:28:37.134Z,22.59
2022-10-17T13:33:42.258Z,22.66
2022-10-17T13:38:43.980Z,22.67
2022-10-17T13:43:46.060Z,22.68
2022-10-17T13:48:48.705Z,22.69
2022-10-17T13:53:50.373Z,22.70
2022-10-17T13:58:53.209Z,22.68
2022-10-17T14:04:07.875Z,22.67
2022-10-17T14:09:40.116Z,22.64
2022-10-17T14:15:09.176Z,22.62
2022-10-17T14:25:43.376Z,22.55
2022-10-17T14:31:02.457Z,22.49
2022-10-17T14:36:05.465Z,22.42
2022-10-17T14:46:37.739Z,22.22
2022-10-17T14:51:50.645Z,22.20
2022-10-17T14:57:14.758Z,22.12
2022-10-17T15:02:17.073Z,22.08
2022-10-17T15:07:19.401Z,22.03
2022-10-17T15:12:26.726Z,21.92
2022-10-17T15:17:30.971Z,21.87
2022-10-17T15:22:36.515Z,21.85
2022-10-17T15:27:38.107Z,21.86
2022-10-17T15:32:39.710Z,21.78
2022-10-17T15:37:42.771Z,21.71
2022-10-17T15:42:44.401Z,21.59
2022-10-17T15:47:54.516Z,21.42
2022-10-17T15:52:56.084Z,21.22
2022-10-17T15:57:57.675Z,20.92
2022-10-17T16:02:59.273Z,20.62
2022-10-17T16:08:00.829Z,20.28
2022-10-17T16:13:02.448Z,19.94
2022-10-17T16:18:06.678Z,19.53
2022-10-17T16:23:12.503Z,19.22
2022-10-17T16:28:14.038Z,18.86
2022-10-17T16:33:15.601Z,18.53
2022-10-17T16:38:17.129Z,18.22
2022-10-17T16:43:18.680Z,17.94
2022-10-17T16:48:20.985Z,17.64
2022-10-17T16:53:22.868Z,17.39
2022-10-17T16:58:27.356Z,17.16
2022-10-17T17:03:28.953Z,16.90
2022-10-17T17:08:30.756Z,16.64
2022-10-17T17:13:32.280Z,16.40
2022-10-17T17:18:34.422Z,16.26
2022-10-17T17:23:38.827Z,16.13
2022-10-17T17:28:41.553Z,15.97
2022-10-17T17:33:44.033Z,15.79
2022-10-17T17:38:47.232Z,15.60
2022-10-17T17:43:49.420Z,15.46
2022-10-17T17:48:52.430Z,15.33
2022-10-17T17:53:55.089Z,15.23
2022-10-17T17:58:59.111Z,15.11
2022-10-17T18:04:00.738Z,15.00
2022-10-17T18:09:02.478Z,14.92
2022-10-17T18:14:07.638Z,14.84
2022-10-17T18:19:11.579Z,14.79
2022-10-17T18:24:13.133Z,14.69
2022-10-17T18:29:14.790Z,14.61
2022-10-17T18:34:16.331Z,14.62
2022-10-17T18:39:18.015Z,14.60
2022-10-17T18:44:19.809Z,14.57
2022-10-17T18:49:23.253Z,14.47
2022-10-17T18:54:24.921Z,14.41
2022-10-17T18:59:26.507Z,14.37
2022-10-17T19:04:28.082Z,14.32
2022-10-17T19:09:29.675Z,14.34
2022-10-17T19:14:31.339Z,14.36
2022-10-17T19:19:32.990Z,14.31
2022-10-17T19:24:34.527Z,14.24
2022-10-17T19:29:36.045Z,14.14
2022-10-17T19:34:37.885Z,14.13
2022-10-17T19:39:39.406Z,14.08
2022-10-17T19:44:40.992Z,14.12
2022-10-17T19:49:46.466Z,14.11
2022-10-17T19:54:50.672Z,14.06
2022-10-17T19:59:55.133Z,14.04
2022-10-17T20:05:13.946Z,13.93
2022-10-17T20:10:19.196Z,13.93
2022-10-17T20:15:20.784Z,13.74
2022-10-17T20:20:22.710Z,13.65
2022-10-17T20:25:26.710Z,13.56
2022-10-17T20:30:28.354Z,13.50
2022-10-17T20:35:29.884Z,13.50
2022-10-17T20:40:35.605Z,13.46
2022-10-17T20:45:50.629Z,13.59
2022-10-17T20:50:53.952Z,13.65
2022-10-17T20:56:23.017Z,13.83
2022-10-17T21:01:26.017Z,13.97
2022-10-17T21:06:27.687Z,14.12
2022-10-17T21:11:30.318Z,14.14
2022-10-17T21:16:34.449Z,14.05
2022-10-17T21:21:39.403Z,13.79
2022-10-17T21:26:42.441Z,13.58
2022-10-17T21:31:44.928Z,13.40
2022-10-17T21:36:47.161Z,13.30
2022-10-17T21:41:48.847Z,13.27
2022-10-17T21:46:51.326Z,13.21
2022-10-17T21:51:53.629Z,13.13
2022-10-17T21:56:55.371Z,13.04
2022-10-17T22:01:57.014Z,12.84
2022-10-17T22:06:58.628Z,12.84
2022-10-17T22:12:00.204Z,12.79
2022-10-17T22:17:01.784Z,12.72
2022-10-17T22:22:03.352Z,12.68
2022-10-17T22:27:04.906Z,12.73
2022-10-17T22:32:06.614Z,12.74
2022-10-17T22:37:11.039Z,12.73
2022-10-17T22:42:12.650Z,12.74
2022-10-17T22:47:14.273Z,12.78
2022-10-17T22:52:15.825Z,12.81
2022-10-17T22:57:17.378Z,12.76
2022-10-17T23:02:18.906Z,12.70
2022-10-17T23:07:20.488Z,12.69
2022-10-17T23:12:22.283Z,12.72
2022-10-17T23:17:23.803Z,12.74
2022-10-17T23:22:25.336Z,12.76
2022-10-17T23:27:26.900Z,12.74
2022-10-17T23:32:28.740Z,12.67
2022-10-17T23:37:30.814Z,12.56
2022-10-17T23:42:32.505Z,12.48
2022-10-17T23:47:34.253Z,12.53
2022-10-17T23:52:35.985Z,12.46
2022-10-17T23:57:37.624Z,12.47
